sensor_id;sensor_type;location;lat;lon;timestamp;temperature;humidity
57564;DHT22;43400;45.926;6.724;2022-09-29T00:01:07;10.90;99.90
57564;DHT22;43400;45.926;6.724;2022-09-29T00:03:43;10.90;99.90
57564;DHT22;43400;45.926;6.724;2022-09-29T00:06:18;10.80;99.90
57564;DHT22;43400;45.926;6.724;2022-09-29T00:08:49;10.90;99.90
57564;DHT22;43400;45.926;6.724;2022-09-29T00:11:21;10.80;99.90
57564;DHT22;43400;45.926;6.724;2022-09-29T00:13:53;10.80;99.90
57564;DHT22;43400;45.926;6.724;2022-09-29T00:16:25;10.80;99.90
57564;DHT22;43400;45.926;6.724;2022-09-29T00:18:57;10.90;99.90
57564;DHT22;43400;45.926;6.724;2022-09-29T00:21:29;10.80;99.90
57564;DHT22;43400;45.926;6.724;2022-09-29T00:24:02;10.70;99.90
57564;DHT22;43400;45.926;6.724;2022-09-29T00:26:33;10.70;99.90
57564;DHT22;43400;45.926;6.724;2022-09-29T00:29:05;10.70;99.90
57564;DHT22;43400;45.926;6.724;2022-09-29T00:31:44;10.70;99.90
57564;DHT22;43400;45.926;6.724;2022-09-29T00:34:16;10.80;99.90
57564;DHT22;43400;45.926;6.724;2022-09-29T00:36:47;10.80;99.90
57564;DHT22;43400;45.926;6.724;2022-09-29T00:39:19;10.80;99.90
57564;DHT22;43400;45.926;6.724;2022-09-29T00:41:51;10.90;99.90
57564;DHT22;43400;45.926;6.724;2022-09-29T00:47:15;10.90;99.90
57564;DHT22;43400;45.926;6.724;2022-09-29T00:52:42;10.90;99.90
57564;DHT22;43400;45.926;6.724;2022-09-29T00:55:20;10.80;99.90
57564;DHT22;43400;45.926;6.724;2022-09-29T00:57:58;10.90;99.90
57564;DHT22;43400;45.926;6.724;2022-09-29T01:00:31;10.80;99.90
57564;DHT22;43400;45.926;6.724;2022-09-29T01:03:22;10.90;99.90
57564;DHT22;43400;45.926;6.724;2022-09-29T01:05:58;10.90;99.90
57564;DHT22;43400;45.926;6.724;2022-09-29T01:11:15;10.80;99.90
57564;DHT22;43400;45.926;6.724;2022-09-29T01:13:47;10.80;99.90
57564;DHT22;43400;45.926;6.724;2022-09-29T01:16:19;10.90;99.90
57564;DHT22;43400;45.926;6.724;2022-09-29T01:18:52;10.80;99.90
57564;DHT22;43400;45.926;6.724;2022-09-29T01:40:13;10.80;99.90
57564;DHT22;43400;45.926;6.724;2022-09-29T01:42:49;10.80;99.90
57564;DHT22;43400;45.926;6.724;2022-09-29T01:45:34;10.90;99.90
57564;DHT22;43400;45.926;6.724;2022-09-29T01:48:17;10.90;99.90
57564;DHT22;43400;45.926;6.724;2022-09-29T01:50:53;10.90;99.90
57564;DHT22;43400;45.926;6.724;2022-09-29T01:53:50;10.90;99.90
57564;DHT22;43400;45.926;6.724;2022-09-29T01:56:57;10.80;99.90
57564;DHT22;43400;45.926;6.724;2022-09-29T01:59:53;10.90;99.90
57564;DHT22;43400;45.926;6.724;2022-09-29T02:02:56;10.90;99.90
57564;DHT22;43400;45.926;6.724;2022-09-29T02:05:31;10.90;99.90
57564;DHT22;43400;45.926;6.724;2022-09-29T02:08:32;10.90;99.90
57564;DHT22;43400;45.926;6.724;2022-09-29T02:11:07;10.90;99.90
57564;DHT22;43400;45.926;6.724;2022-09-29T02:14:05;10.90;99.90
57564;DHT22;43400;45.926;6.724;2022-09-29T02:16:39;10.90;99.90
57564;DHT22;43400;45.926;6.724;2022-09-29T02:19:21;10.80;99.90
57564;DHT22;43400;45.926;6.724;2022-09-29T02:21:55;10.80;99.90
57564;DHT22;43400;45.926;6.724;2022-09-29T02:24:27;10.80;99.90
57564;DHT22;43400;45.926;6.724;2022-09-29T02:26:59;10.80;99.90
57564;DHT22;43400;45.926;6.724;2022-09-29T02:29:32;10.80;99.90
57564;DHT22;43400;45.926;6.724;2022-09-29T02:32:05;10.80;99.90
57564;DHT22;43400;45.926;6.724;2022-09-29T02:34:40;10.80;99.90
57564;DHT22;43400;45.926;6.724;2022-09-29T02:37:47;10.80;99.90
57564;DHT22;43400;45.926;6.724;2022-09-29T02:43:48;10.80;99.90
57564;DHT22;43400;45.926;6.724;2022-09-29T02:49:19;10.80;99.90
57564;DHT22;43400;45.926;6.724;2022-09-29T02:51:57;10.80;99.90
57564;DHT22;43400;45.926;6.724;2022-09-29T02:57:49;10.80;99.90
57564;DHT22;43400;45.926;6.724;2022-09-29T03:00:21;10.80;99.90
57564;DHT22;43400;45.926;6.724;2022-09-29T03:02:53;10.70;99.90
57564;DHT22;43400;45.926;6.724;2022-09-29T03:05:25;10.70;99.90
57564;DHT22;43400;45.926;6.724;2022-09-29T03:07:56;10.70;99.90
57564;DHT22;43400;45.926;6.724;2022-09-29T03:10:28;10.80;99.90
57564;DHT22;43400;45.926;6.724;2022-09-29T03:12:59;10.70;99.90
57564;DHT22;43400;45.926;6.724;2022-09-29T03:15:30;10.70;99.90
57564;DHT22;43400;45.926;6.724;2022-09-29T03:18:02;10.70;99.90
57564;DHT22;43400;45.926;6.724;2022-09-29T03:20:34;10.80;99.90
57564;DHT22;43400;45.926;6.724;2022-09-29T03:23:06;10.80;99.90
57564;DHT22;43400;45.926;6.724;2022-09-29T03:25:38;10.80;99.90
57564;DHT22;43400;45.926;6.724;2022-09-29T03:28:10;10.80;99.90
57564;DHT22;43400;45.926;6.724;2022-09-29T03:30:41;10.80;99.90
57564;DHT22;43400;45.926;6.724;2022-09-29T03:33:13;10.70;99.90
57564;DHT22;43400;45.926;6.724;2022-09-29T03:35:44;10.80;99.90
57564;DHT22;43400;45.926;6.724;2022-09-29T03:38:16;10.80;99.90
57564;DHT22;43400;45.926;6.724;2022-09-29T03:40:48;10.70;99.90
57564;DHT22;43400;45.926;6.724;2022-09-29T03:43:19;10.70;99.90
57564;DHT22;43400;45.926;6.724;2022-09-29T03:45:52;10.70;99.90
57564;DHT22;43400;45.926;6.724;2022-09-29T03:48:24;10.80;99.90
57564;DHT22;43400;45.926;6.724;2022-09-29T03:50:57;10.70;99.90
57564;DHT22;43400;45.926;6.724;2022-09-29T03:53:28;10.70;99.90
57564;DHT22;43400;45.926;6.724;2022-09-29T03:56:01;10.60;99.90
57564;DHT22;43400;45.926;6.724;2022-09-29T03:58:33;10.60;99.90
57564;DHT22;43400;45.926;6.724;2022-09-29T04:01:04;10.50;99.90
57564;DHT22;43400;45.926;6.724;2022-09-29T04:03:36;10.60;99.90
57564;DHT22;43400;45.926;6.724;2022-09-29T04:06:08;10.60;99.90
57564;DHT22;43400;45.926;6.724;2022-09-29T04:08:39;10.70;99.90
57564;DHT22;43400;45.926;6.724;2022-09-29T04:11:11;10.70;99.90
57564;DHT22;43400;45.926;6.724;2022-09-29T04:13:42;10.70;99.90
57564;DHT22;43400;45.926;6.724;2022-09-29T04:16:14;10.80;99.90
57564;DHT22;43400;45.926;6.724;2022-09-29T04:18:45;10.80;99.90
57564;DHT22;43400;45.926;6.724;2022-09-29T04:21:17;10.80;99.90
57564;DHT22;43400;45.926;6.724;2022-09-29T04:23:48;10.80;99.90
57564;DHT22;43400;45.926;6.724;2022-09-29T04:26:20;10.70;99.90
57564;DHT22;43400;45.926;6.724;2022-09-29T04:28:52;10.70;99.90
57564;DHT22;43400;45.926;6.724;2022-09-29T04:31:23;10.80;99.90
57564;DHT22;43400;45.926;6.724;2022-09-29T04:33:55;10.70;99.90
57564;DHT22;43400;45.926;6.724;2022-09-29T04:36:26;10.60;99.90
57564;DHT22;43400;45.926;6.724;2022-09-29T04:38:58;10.70;99.90
57564;DHT22;43400;45.926;6.724;2022-09-29T04:41:29;10.60;99.90
57564;DHT22;43400;45.926;6.724;2022-09-29T04:44:01;10.50;99.90
57564;DHT22;43400;45.926;6.724;2022-09-29T04:46:32;10.50;99.90
57564;DHT22;43400;45.926;6.724;2022-09-29T04:49:04;10.50;99.90
57564;DHT22;43400;45.926;6.724;2022-09-29T04:51:35;10.50;99.90
57564;DHT22;43400;45.926;6.724;2022-09-29T04:54:07;10.50;99.90
57564;DHT22;43400;45.926;6.724;2022-09-29T04:56:38;10.50;99.90
57564;DHT22;43400;45.926;6.724;2022-09-29T04:59:10;10.50;99.90
57564;DHT22;43400;45.926;6.724;2022-09-29T05:01:41;10.50;99.90
57564;DHT22;43400;45.926;6.724;2022-09-29T05:04:13;10.60;99.90
57564;DHT22;43400;45.926;6.724;2022-09-29T05:06:45;10.70;99.90
57564;DHT22;43400;45.926;6.724;2022-09-29T05:09:16;10.70;99.90
57564;DHT22;43400;45.926;6.724;2022-09-29T05:11:48;10.70;99.90
57564;DHT22;43400;45.926;6.724;2022-09-29T05:14:20;10.70;99.90
57564;DHT22;43400;45.926;6.724;2022-09-29T05:16:53;10.70;99.90
57564;DHT22;43400;45.926;6.724;2022-09-29T05:19:25;10.70;99.90
57564;DHT22;43400;45.926;6.724;2022-09-29T05:21:57;10.70;99.90
57564;DHT22;43400;45.926;6.724;2022-09-29T05:24:29;10.70;99.90
57564;DHT22;43400;45.926;6.724;2022-09-29T05:27:00;10.80;99.90
57564;DHT22;43400;45.926;6.724;2022-09-29T05:29:32;10.80;99.90
57564;DHT22;43400;45.926;6.724;2022-09-29T05:32:04;10.80;99.90
57564;DHT22;43400;45.926;6.724;2022-09-29T05:34:35;10.80;99.90
57564;DHT22;43400;45.926;6.724;2022-09-29T05:37:07;10.70;99.90
57564;DHT22;43400;45.926;6.724;2022-09-29T05:39:39;10.80;99.90
57564;DHT22;43400;45.926;6.724;2022-09-29T05:42:11;10.70;99.90
57564;DHT22;43400;45.926;6.724;2022-09-29T05:44:42;10.80;99.90
57564;DHT22;43400;45.926;6.724;2022-09-29T05:47:14;10.80;99.90
57564;DHT22;43400;45.926;6.724;2022-09-29T05:49:45;10.90;99.90
57564;DHT22;43400;45.926;6.724;2022-09-29T05:52:17;10.90;99.90
57564;DHT22;43400;45.926;6.724;2022-09-29T05:54:48;10.90;99.90
57564;DHT22;43400;45.926;6.724;2022-09-29T05:57:20;10.90;99.90
57564;DHT22;43400;45.926;6.724;2022-09-29T05:59:51;10.90;99.90
57564;DHT22;43400;45.926;6.724;2022-09-29T06:02:23;10.90;99.90
57564;DHT22;43400;45.926;6.724;2022-09-29T06:04:54;11.00;99.90
57564;DHT22;43400;45.926;6.724;2022-09-29T06:07:26;10.90;99.90
57564;DHT22;43400;45.926;6.724;2022-09-29T06:09:57;10.90;99.90
57564;DHT22;43400;45.926;6.724;2022-09-29T06:12:33;10.90;99.90
57564;DHT22;43400;45.926;6.724;2022-09-29T06:15:05;10.90;99.90
57564;DHT22;43400;45.926;6.724;2022-09-29T06:17:37;10.90;99.90
57564;DHT22;43400;45.926;6.724;2022-09-29T06:20:09;10.90;99.90
57564;DHT22;43400;45.926;6.724;2022-09-29T06:22:40;10.90;99.90
57564;DHT22;43400;45.926;6.724;2022-09-29T06:25:11;11.00;99.90
57564;DHT22;43400;45.926;6.724;2022-09-29T06:27:43;11.00;99.90
57564;DHT22;43400;45.926;6.724;2022-09-29T06:30:15;11.00;99.90
57564;DHT22;43400;45.926;6.724;2022-09-29T06:32:46;11.00;99.90
57564;DHT22;43400;45.926;6.724;2022-09-29T06:35:18;11.00;99.90
57564;DHT22;43400;45.926;6.724;2022-09-29T06:37:50;11.00;99.90
57564;DHT22;43400;45.926;6.724;2022-09-29T06:40:23;10.90;99.90
57564;DHT22;43400;45.926;6.724;2022-09-29T06:42:55;11.00;99.90
57564;DHT22;43400;45.926;6.724;2022-09-29T06:45:26;11.00;99.90
57564;DHT22;43400;45.926;6.724;2022-09-29T06:47:58;11.10;99.90
57564;DHT22;43400;45.926;6.724;2022-09-29T06:50:30;11.00;99.90
57564;DHT22;43400;45.926;6.724;2022-09-29T06:53:01;11.10;99.90
57564;DHT22;43400;45.926;6.724;2022-09-29T06:55:33;11.10;99.90
57564;DHT22;43400;45.926;6.724;2022-09-29T06:58:05;11.00;99.90
57564;DHT22;43400;45.926;6.724;2022-09-29T07:00:37;11.00;99.90
57564;DHT22;43400;45.926;6.724;2022-09-29T07:03:08;11.00;99.90
57564;DHT22;43400;45.926;6.724;2022-09-29T07:05:40;11.00;99.90
57564;DHT22;43400;45.926;6.724;2022-09-29T07:08:11;11.00;99.90
57564;DHT22;43400;45.926;6.724;2022-09-29T07:10:45;11.00;99.90
57564;DHT22;43400;45.926;6.724;2022-09-29T07:13:17;11.10;99.90
57564;DHT22;43400;45.926;6.724;2022-09-29T07:15:49;11.10;99.90
57564;DHT22;43400;45.926;6.724;2022-09-29T07:18:21;11.10;99.90
57564;DHT22;43400;45.926;6.724;2022-09-29T07:20:55;11.10;99.90
57564;DHT22;43400;45.926;6.724;2022-09-29T07:23:27;11.10;99.90
57564;DHT22;43400;45.926;6.724;2022-09-29T07:25:58;11.10;99.90
57564;DHT22;43400;45.926;6.724;2022-09-29T07:28:30;11.10;99.90
57564;DHT22;43400;45.926;6.724;2022-09-29T07:31:05;11.10;99.90
57564;DHT22;43400;45.926;6.724;2022-09-29T07:33:36;11.10;99.90
57564;DHT22;43400;45.926;6.724;2022-09-29T07:36:08;11.20;99.90
57564;DHT22;43400;45.926;6.724;2022-09-29T07:38:39;11.10;99.90
57564;DHT22;43400;45.926;6.724;2022-09-29T07:41:11;11.10;99.90
57564;DHT22;43400;45.926;6.724;2022-09-29T07:43:43;11.20;99.90
57564;DHT22;43400;45.926;6.724;2022-09-29T07:46:15;11.30;99.90
57564;DHT22;43400;45.926;6.724;2022-09-29T07:48:46;11.30;99.90
57564;DHT22;43400;45.926;6.724;2022-09-29T07:51:19;11.20;99.90
57564;DHT22;43400;45.926;6.724;2022-09-29T07:53:51;11.10;99.90
57564;DHT22;43400;45.926;6.724;2022-09-29T07:56:22;11.10;99.90
57564;DHT22;43400;45.926;6.724;2022-09-29T07:58:54;11.20;99.90
57564;DHT22;43400;45.926;6.724;2022-09-29T08:01:26;11.20;99.90
57564;DHT22;43400;45.926;6.724;2022-09-29T08:03:58;11.30;99.90
57564;DHT22;43400;45.926;6.724;2022-09-29T08:06:30;11.30;99.90
57564;DHT22;43400;45.926;6.724;2022-09-29T08:09:01;11.40;99.90
57564;DHT22;43400;45.926;6.724;2022-09-29T08:11:37;11.40;99.90
57564;DHT22;43400;45.926;6.724;2022-09-29T08:14:10;11.40;99.90
57564;DHT22;43400;45.926;6.724;2022-09-29T08:16:42;11.40;99.90
57564;DHT22;43400;45.926;6.724;2022-09-29T08:19:13;11.40;99.90
57564;DHT22;43400;45.926;6.724;2022-09-29T08:21:45;11.40;99.90
57564;DHT22;43400;45.926;6.724;2022-09-29T08:24:17;11.50;99.90
57564;DHT22;43400;45.926;6.724;2022-09-29T08:26:48;11.60;99.90
57564;DHT22;43400;45.926;6.724;2022-09-29T08:29:20;11.70;99.90
57564;DHT22;43400;45.926;6.724;2022-09-29T08:31:51;11.80;99.90
57564;DHT22;43400;45.926;6.724;2022-09-29T08:34:23;11.90;99.90
57564;DHT22;43400;45.926;6.724;2022-09-29T08:36:54;12.00;99.90
57564;DHT22;43400;45.926;6.724;2022-09-29T08:39:26;12.10;99.90
57564;DHT22;43400;45.926;6.724;2022-09-29T08:42:28;12.20;99.90
57564;DHT22;43400;45.926;6.724;2022-09-29T08:45:07;12.50;99.90
57564;DHT22;43400;45.926;6.724;2022-09-29T08:47:48;12.80;99.90
57564;DHT22;43400;45.926;6.724;2022-09-29T08:50:42;13.10;99.90
57564;DHT22;43400;45.926;6.724;2022-09-29T08:53:19;13.20;99.90
57564;DHT22;43400;45.926;6.724;2022-09-29T08:56:12;13.40;99.90
57564;DHT22;43400;45.926;6.724;2022-09-29T08:58:45;13.40;99.90
57564;DHT22;43400;45.926;6.724;2022-09-29T09:04:30;13.70;99.90
57564;DHT22;43400;45.926;6.724;2022-09-29T09:16:19;13.40;97.40
57564;DHT22;43400;45.926;6.724;2022-09-29T09:21:46;13.20;96.60
57564;DHT22;43400;45.926;6.724;2022-09-29T09:24:43;13.20;99.90
57564;DHT22;43400;45.926;6.724;2022-09-29T09:27:22;13.10;99.90
57564;DHT22;43400;45.926;6.724;2022-09-29T09:30:23;13.20;99.90
57564;DHT22;43400;45.926;6.724;2022-09-29T09:32:58;13.20;99.90
57564;DHT22;43400;45.926;6.724;2022-09-29T09:35:46;13.10;99.90
57564;DHT22;43400;45.926;6.724;2022-09-29T09:38:26;13.10;99.90
57564;DHT22;43400;45.926;6.724;2022-09-29T09:40:59;13.10;99.90
57564;DHT22;43400;45.926;6.724;2022-09-29T09:43:40;13.10;99.90
57564;DHT22;43400;45.926;6.724;2022-09-29T09:46:23;13.20;99.90
57564;DHT22;43400;45.926;6.724;2022-09-29T09:49:15;13.30;99.90
57564;DHT22;43400;45.926;6.724;2022-09-29T09:52:10;13.40;99.90
57564;DHT22;43400;45.926;6.724;2022-09-29T09:54:45;13.50;99.90
57564;DHT22;43400;45.926;6.724;2022-09-29T10:00:14;13.50;99.90
57564;DHT22;43400;45.926;6.724;2022-09-29T10:02:49;13.40;99.90
57564;DHT22;43400;45.926;6.724;2022-09-29T10:05:25;13.40;99.90
57564;DHT22;43400;45.926;6.724;2022-09-29T10:07:59;13.50;99.90
57564;DHT22;43400;45.926;6.724;2022-09-29T10:10:31;13.40;99.90
57564;DHT22;43400;45.926;6.724;2022-09-29T10:13:10;13.20;99.90
57564;DHT22;43400;45.926;6.724;2022-09-29T10:16:18;13.20;99.90
57564;DHT22;43400;45.926;6.724;2022-09-29T10:18:51;13.10;99.90
57564;DHT22;43400;45.926;6.724;2022-09-29T10:21:42;13.10;99.90
57564;DHT22;43400;45.926;6.724;2022-09-29T10:24:28;13.10;99.90
57564;DHT22;43400;45.926;6.724;2022-09-29T10:27:01;13.20;99.90
57564;DHT22;43400;45.926;6.724;2022-09-29T10:29:40;13.20;99.90
57564;DHT22;43400;45.926;6.724;2022-09-29T10:32:15;13.00;99.90
57564;DHT22;43400;45.926;6.724;2022-09-29T10:34:53;13.00;99.90
57564;DHT22;43400;45.926;6.724;2022-09-29T10:37:33;13.00;99.90
57564;DHT22;43400;45.926;6.724;2022-09-29T10:42:41;13.00;99.90
57564;DHT22;43400;45.926;6.724;2022-09-29T10:45:19;13.20;99.90
57564;DHT22;43400;45.926;6.724;2022-09-29T10:50:58;13.50;99.90
57564;DHT22;43400;45.926;6.724;2022-09-29T10:53:37;13.60;99.90
57564;DHT22;43400;45.926;6.724;2022-09-29T10:56:16;13.60;99.90
57564;DHT22;43400;45.926;6.724;2022-09-29T10:58:59;13.90;99.90
57564;DHT22;43400;45.926;6.724;2022-09-29T11:01:34;13.90;99.90
57564;DHT22;43400;45.926;6.724;2022-09-29T11:04:18;13.90;96.50
57564;DHT22;43400;45.926;6.724;2022-09-29T11:06:53;13.80;96.70
57564;DHT22;43400;45.926;6.724;2022-09-29T11:09:27;13.90;97.10
57564;DHT22;43400;45.926;6.724;2022-09-29T11:11:59;14.00;97.00
57564;DHT22;43400;45.926;6.724;2022-09-29T11:14:38;14.10;97.40
57564;DHT22;43400;45.926;6.724;2022-09-29T11:17:29;14.10;95.00
57564;DHT22;43400;45.926;6.724;2022-09-29T11:20:04;14.30;95.70
57564;DHT22;43400;45.926;6.724;2022-09-29T11:31:22;14.40;92.80
57564;DHT22;43400;45.926;6.724;2022-09-29T11:40:14;14.50;93.00
57564;DHT22;43400;45.926;6.724;2022-09-29T11:44:00;14.40;93.30
57564;DHT22;43400;45.926;6.724;2022-09-29T11:48:39;14.00;93.40
57564;DHT22;43400;45.926;6.724;2022-09-29T11:57:38;14.10;94.10
57564;DHT22;43400;45.926;6.724;2022-09-29T12:00:18;13.90;95.40
57564;DHT22;43400;45.926;6.724;2022-09-29T12:12:17;13.80;96.90
57564;DHT22;43400;45.926;6.724;2022-09-29T12:17:26;13.70;94.60
57564;DHT22;43400;45.926;6.724;2022-09-29T12:20:21;13.70;95.60
57564;DHT22;43400;45.926;6.724;2022-09-29T12:22:56;13.60;96.00
57564;DHT22;43400;45.926;6.724;2022-09-29T12:25:32;13.60;95.30
57564;DHT22;43400;45.926;6.724;2022-09-29T12:28:11;13.60;94.20
57564;DHT22;43400;45.926;6.724;2022-09-29T12:30:58;13.60;94.40
57564;DHT22;43400;45.926;6.724;2022-09-29T12:33:38;13.60;93.80
57564;DHT22;43400;45.926;6.724;2022-09-29T12:39:08;13.30;93.30
57564;DHT22;43400;45.926;6.724;2022-09-29T12:44:53;13.20;94.70
57564;DHT22;43400;45.926;6.724;2022-09-29T12:48:11;13.10;95.30
57564;DHT22;43400;45.926;6.724;2022-09-29T12:50:41;13.10;96.30
57564;DHT22;43400;45.926;6.724;2022-09-29T12:53:33;13.00;96.50
57564;DHT22;43400;45.926;6.724;2022-09-29T12:59:14;13.00;96.50
57564;DHT22;43400;45.926;6.724;2022-09-29T13:01:53;13.00;95.00
57564;DHT22;43400;45.926;6.724;2022-09-29T13:05:14;12.90;95.70
57564;DHT22;43400;45.926;6.724;2022-09-29T13:10:43;13.00;94.90
57564;DHT22;43400;45.926;6.724;2022-09-29T13:24:43;13.00;95.80
57564;DHT22;43400;45.926;6.724;2022-09-29T13:27:30;12.90;96.40
57564;DHT22;43400;45.926;6.724;2022-09-29T13:33:09;12.60;95.70
57564;DHT22;43400;45.926;6.724;2022-09-29T13:35:47;12.40;96.80
57564;DHT22;43400;45.926;6.724;2022-09-29T13:38:25;12.30;96.70
57564;DHT22;43400;45.926;6.724;2022-09-29T13:41:16;12.10;97.10
57564;DHT22;43400;45.926;6.724;2022-09-29T13:54:50;12.00;97.00
57564;DHT22;43400;45.926;6.724;2022-09-29T13:57:22;11.90;99.10
57564;DHT22;43400;45.926;6.724;2022-09-29T14:02:33;11.90;99.60
57564;DHT22;43400;45.926;6.724;2022-09-29T14:16:09;12.00;99.90
57564;DHT22;43400;45.926;6.724;2022-09-29T14:19:01;11.90;98.70
57564;DHT22;43400;45.926;6.724;2022-09-29T14:21:58;11.80;99.20
57564;DHT22;43400;45.926;6.724;2022-09-29T14:33:04;11.90;99.90
57564;DHT22;43400;45.926;6.724;2022-09-29T14:35:41;11.90;99.40
57564;DHT22;43400;45.926;6.724;2022-09-29T14:38:18;11.90;99.70
57564;DHT22;43400;45.926;6.724;2022-09-29T14:40:58;11.90;99.10
57564;DHT22;43400;45.926;6.724;2022-09-29T15:00:59;11.50;99.90
57564;DHT22;43400;45.926;6.724;2022-09-29T15:03:52;11.50;99.90
57564;DHT22;43400;45.926;6.724;2022-09-29T15:06:26;11.30;99.90
57564;DHT22;43400;45.926;6.724;2022-09-29T15:09:12;11.30;99.90
57564;DHT22;43400;45.926;6.724;2022-09-29T15:11:56;11.30;99.90
57564;DHT22;43400;45.926;6.724;2022-09-29T15:14:30;11.20;99.90
57564;DHT22;43400;45.926;6.724;2022-09-29T15:17:20;11.20;99.90
57564;DHT22;43400;45.926;6.724;2022-09-29T15:25:35;11.20;99.90
57564;DHT22;43400;45.926;6.724;2022-09-29T15:28:30;11.20;99.90
57564;DHT22;43400;45.926;6.724;2022-09-29T15:31:06;11.20;99.90
57564;DHT22;43400;45.926;6.724;2022-09-29T15:33:41;11.20;99.90
57564;DHT22;43400;45.926;6.724;2022-09-29T15:39:00;11.30;99.90
57564;DHT22;43400;45.926;6.724;2022-09-29T15:41:33;11.30;99.90
57564;DHT22;43400;45.926;6.724;2022-09-29T15:44:13;11.30;99.90
57564;DHT22;43400;45.926;6.724;2022-09-29T15:46:55;11.40;99.90
57564;DHT22;43400;45.926;6.724;2022-09-29T15:49:28;11.30;99.90
57564;DHT22;43400;45.926;6.724;2022-09-29T15:52:05;11.30;99.90
57564;DHT22;43400;45.926;6.724;2022-09-29T15:54:39;11.30;99.90
57564;DHT22;43400;45.926;6.724;2022-09-29T16:03:17;11.40;99.90
57564;DHT22;43400;45.926;6.724;2022-09-29T16:08:39;11.30;99.90
57564;DHT22;43400;45.926;6.724;2022-09-29T16:11:19;11.30;99.90
57564;DHT22;43400;45.926;6.724;2022-09-29T16:14:01;11.40;99.90
57564;DHT22;43400;45.926;6.724;2022-09-29T16:16:42;11.50;99.90
57564;DHT22;43400;45.926;6.724;2022-09-29T16:19:27;11.50;99.90
57564;DHT22;43400;45.926;6.724;2022-09-29T16:22:04;11.60;99.90
57564;DHT22;43400;45.926;6.724;2022-09-29T16:24:51;11.60;99.90
57564;DHT22;43400;45.926;6.724;2022-09-29T16:27:57;11.50;99.90
57564;DHT22;43400;45.926;6.724;2022-09-29T16:30:32;11.50;99.90
57564;DHT22;43400;45.926;6.724;2022-09-29T16:33:13;11.50;99.90
57564;DHT22;43400;45.926;6.724;2022-09-29T16:35:46;11.60;99.90
57564;DHT22;43400;45.926;6.724;2022-09-29T16:38:44;11.60;99.90
57564;DHT22;43400;45.926;6.724;2022-09-29T16:41:29;11.50;99.90
57564;DHT22;43400;45.926;6.724;2022-09-29T16:46:46;11.40;99.90
57564;DHT22;43400;45.926;6.724;2022-09-29T16:49:27;11.40;99.90
57564;DHT22;43400;45.926;6.724;2022-09-29T16:52:13;11.30;99.90
57564;DHT22;43400;45.926;6.724;2022-09-29T16:54:46;11.30;99.90
57564;DHT22;43400;45.926;6.724;2022-09-29T16:57:31;11.30;99.90
57564;DHT22;43400;45.926;6.724;2022-09-29T17:00:11;11.30;99.90
57564;DHT22;43400;45.926;6.724;2022-09-29T17:02:43;11.30;99.90
57564;DHT22;43400;45.926;6.724;2022-09-29T17:05:14;11.30;99.90
57564;DHT22;43400;45.926;6.724;2022-09-29T17:07:46;11.30;99.90
57564;DHT22;43400;45.926;6.724;2022-09-29T17:10:19;11.30;99.90
57564;DHT22;43400;45.926;6.724;2022-09-29T17:12:51;11.30;99.90
57564;DHT22;43400;45.926;6.724;2022-09-29T17:15:23;11.20;99.90
57564;DHT22;43400;45.926;6.724;2022-09-29T17:17:56;11.20;99.90
57564;DHT22;43400;45.926;6.724;2022-09-29T17:20:27;11.10;99.90
57564;DHT22;43400;45.926;6.724;2022-09-29T17:22:59;11.00;99.90
57564;DHT22;43400;45.926;6.724;2022-09-29T17:25:32;10.90;99.90
57564;DHT22;43400;45.926;6.724;2022-09-29T17:28:19;10.90;99.90
57564;DHT22;43400;45.926;6.724;2022-09-29T17:30:51;10.80;99.90
57564;DHT22;43400;45.926;6.724;2022-09-29T17:33:24;10.80;99.90
57564;DHT22;43400;45.926;6.724;2022-09-29T17:35:56;10.90;99.90
57564;DHT22;43400;45.926;6.724;2022-09-29T17:38:27;10.90;99.90
57564;DHT22;43400;45.926;6.724;2022-09-29T17:41:05;10.90;99.90
57564;DHT22;43400;45.926;6.724;2022-09-29T17:43:37;10.90;99.90
57564;DHT22;43400;45.926;6.724;2022-09-29T17:46:09;10.90;99.90
57564;DHT22;43400;45.926;6.724;2022-09-29T17:48:40;10.90;99.90
57564;DHT22;43400;45.926;6.724;2022-09-29T17:51:14;10.80;99.90
57564;DHT22;43400;45.926;6.724;2022-09-29T17:53:46;10.80;99.90
57564;DHT22;43400;45.926;6.724;2022-09-29T17:56:24;10.80;99.90
57564;DHT22;43400;45.926;6.724;2022-09-29T17:58:56;10.70;99.90
57564;DHT22;43400;45.926;6.724;2022-09-29T18:01:28;10.70;99.90
57564;DHT22;43400;45.926;6.724;2022-09-29T18:04:00;10.70;99.90
57564;DHT22;43400;45.926;6.724;2022-09-29T18:06:32;10.80;99.90
57564;DHT22;43400;45.926;6.724;2022-09-29T18:09:13;10.70;99.90
57564;DHT22;43400;45.926;6.724;2022-09-29T18:11:45;10.80;99.90
57564;DHT22;43400;45.926;6.724;2022-09-29T18:14:17;10.80;99.90
57564;DHT22;43400;45.926;6.724;2022-09-29T18:16:48;10.80;99.90
57564;DHT22;43400;45.926;6.724;2022-09-29T18:19:20;10.80;99.90
57564;DHT22;43400;45.926;6.724;2022-09-29T18:21:51;10.80;99.90
57564;DHT22;43400;45.926;6.724;2022-09-29T18:24:23;10.80;99.90
57564;DHT22;43400;45.926;6.724;2022-09-29T18:26:55;10.90;99.90
57564;DHT22;43400;45.926;6.724;2022-09-29T18:29:29;10.80;99.90
57564;DHT22;43400;45.926;6.724;2022-09-29T18:32:01;10.80;99.90
57564;DHT22;43400;45.926;6.724;2022-09-29T18:34:32;10.70;99.90
57564;DHT22;43400;45.926;6.724;2022-09-29T18:37:03;10.70;99.90
57564;DHT22;43400;45.926;6.724;2022-09-29T18:39:35;10.70;99.90
57564;DHT22;43400;45.926;6.724;2022-09-29T18:42:08;10.70;99.90
57564;DHT22;43400;45.926;6.724;2022-09-29T18:44:40;10.70;99.90
57564;DHT22;43400;45.926;6.724;2022-09-29T18:47:11;10.60;99.90
57564;DHT22;43400;45.926;6.724;2022-09-29T18:49:43;10.60;99.90
57564;DHT22;43400;45.926;6.724;2022-09-29T18:52:14;10.60;99.90
57564;DHT22;43400;45.926;6.724;2022-09-29T18:54:46;10.50;99.90
57564;DHT22;43400;45.926;6.724;2022-09-29T18:57:17;10.50;99.90
57564;DHT22;43400;45.926;6.724;2022-09-29T18:59:49;10.40;99.90
57564;DHT22;43400;45.926;6.724;2022-09-29T19:02:20;10.50;99.90
57564;DHT22;43400;45.926;6.724;2022-09-29T19:04:52;10.50;99.90
57564;DHT22;43400;45.926;6.724;2022-09-29T19:07:24;10.50;99.90
57564;DHT22;43400;45.926;6.724;2022-09-29T19:09:55;10.40;99.90
57564;DHT22;43400;45.926;6.724;2022-09-29T19:12:27;10.40;99.90
57564;DHT22;43400;45.926;6.724;2022-09-29T19:14:58;10.50;99.90
57564;DHT22;43400;45.926;6.724;2022-09-29T19:17:30;10.50;99.90
57564;DHT22;43400;45.926;6.724;2022-09-29T19:20:02;10.40;99.90
57564;DHT22;43400;45.926;6.724;2022-09-29T19:22:34;10.40;99.90
57564;DHT22;43400;45.926;6.724;2022-09-29T19:25:06;10.40;99.90
57564;DHT22;43400;45.926;6.724;2022-09-29T19:27:39;10.40;99.90
57564;DHT22;43400;45.926;6.724;2022-09-29T19:30:13;10.30;99.90
57564;DHT22;43400;45.926;6.724;2022-09-29T19:32:45;10.40;99.90
57564;DHT22;43400;45.926;6.724;2022-09-29T19:35:20;10.40;99.90
57564;DHT22;43400;45.926;6.724;2022-09-29T19:37:52;10.50;99.90